createdAt,value
2023-01-28T00:02:01.292Z,10.60
2023-01-28T00:04:30.253Z,9.60
2023-01-28T00:06:59.232Z,8.23
2023-01-28T00:09:28.136Z,10.10
2023-01-28T00:11:59.894Z,10.57
2023-01-28T00:14:40.165Z,8.90
2023-01-28T00:17:08.921Z,8.80
2023-01-28T00:19:39.344Z,11.63
2023-01-28T00:22:08.137Z,8.17
2023-01-28T00:24:36.970Z,7.27
2023-01-28T00:27:05.896Z,10.47
2023-01-28T00:29:34.729Z,8.50
2023-01-28T00:32:03.741Z,7.80
2023-01-28T00:34:32.790Z,8.80
2023-01-28T00:37:01.500Z,13.17
2023-01-28T00:39:30.279Z,9.23
2023-01-28T00:41:59.275Z,8.73
2023-01-28T00:44:28.102Z,7.17
2023-01-28T00:47:08.217Z,7.27
2023-01-28T00:49:39.920Z,8.43
2023-01-28T00:52:08.857Z,9.40
2023-01-28T00:54:38.017Z,6.97
2023-01-28T00:57:08.221Z,8.87
2023-01-28T00:59:37.103Z,8.40
2023-01-28T01:02:07.474Z,8.77
2023-01-28T01:04:36.456Z,10.83
2023-01-28T01:07:06.045Z,8.13
2023-01-28T01:09:35.004Z,10.73
2023-01-28T01:12:03.826Z,9.80
2023-01-28T01:14:36.968Z,10.07
2023-01-28T01:17:07.975Z,10.43
2023-01-28T01:19:38.017Z,10.33
2023-01-28T01:22:06.832Z,10.40
2023-01-28T01:24:37.234Z,9.97
2023-01-28T01:27:06.373Z,10.10
2023-01-28T01:29:35.429Z,10.20
2023-01-28T01:32:04.301Z,11.67
2023-01-28T01:34:37.498Z,10.33
2023-01-28T01:37:09.800Z,12.37
2023-01-28T01:39:38.787Z,11.50
2023-01-28T01:42:13.508Z,12.50
2023-01-28T01:45:00.334Z,13.27
2023-01-28T01:47:38.192Z,12.33
2023-01-28T01:50:09.960Z,12.83
2023-01-28T01:52:38.930Z,9.87
2023-01-28T01:55:10.923Z,10.83
2023-01-28T01:57:40.329Z,12.00
2023-01-28T02:00:13.076Z,10.87
2023-01-28T02:02:44.992Z,11.77
2023-01-28T02:05:16.380Z,13.20
2023-01-28T02:07:50.687Z,12.50
2023-01-28T02:10:19.741Z,12.57
2023-01-28T02:13:01.901Z,12.23
2023-01-28T02:15:30.800Z,11.27
2023-01-28T02:17:59.719Z,11.70
2023-01-28T02:20:47.948Z,12.90
2023-01-28T02:23:42.547Z,10.80
2023-01-28T02:26:19.985Z,11.33
2023-01-28T02:28:57.946Z,10.27
2023-01-28T02:31:32.576Z,9.50
2023-01-28T02:37:06.414Z,10.03
2023-01-28T02:39:41.298Z,11.03
2023-01-28T02:42:19.136Z,7.83
2023-01-28T02:44:50.769Z,12.03
2023-01-28T02:47:49.410Z,11.50
2023-01-28T03:01:17.212Z,10.57
2023-01-28T03:10:45.429Z,10.90
2023-01-28T03:19:48.926Z,8.73
2023-01-28T03:20:23.932Z,11.40
2023-01-28T03:23:32.869Z,10.60
2023-01-28T03:30:24.266Z,12.27
2023-01-28T03:33:18.667Z,6.83
2023-01-28T03:36:14.553Z,9.13
2023-01-28T03:52:19.165Z,11.73
2023-01-28T03:55:03.637Z,10.53
2023-01-28T03:57:37.947Z,10.47
2023-01-28T04:16:31.020Z,12.43
2023-01-28T04:25:49.043Z,11.17
2023-01-28T04:31:46.563Z,10.83
2023-01-28T04:54:55.507Z,7.93
2023-01-28T04:57:38.518Z,8.40
2023-01-28T05:09:53.833Z,11.57
2023-01-28T05:47:47.638Z,8.23
2023-01-28T05:50:31.681Z,12.07
2023-01-28T05:53:07.896Z,16.10
2023-01-28T05:55:58.423Z,9.90
2023-01-28T05:58:41.669Z,10.80
2023-01-28T06:01:18.445Z,11.53
2023-01-28T06:03:53.360Z,12.17
2023-01-28T06:39:28.653Z,10.17
2023-01-28T07:14:38.976Z,10.83
2023-01-28T08:17:46.878Z,11.83
2023-01-28T08:20:44.414Z,18.33
2023-01-28T08:23:31.859Z,16.17
2023-01-28T08:36:14.548Z,14.27
2023-01-28T08:38:51.799Z,14.57
2023-01-28T08:51:55.875Z,14.37
2023-01-28T08:54:51.964Z,13.10
2023-01-28T09:00:11.792Z,13.17
2023-01-28T09:02:59.502Z,16.23
2023-01-28T09:05:28.323Z,12.87
2023-01-28T09:08:02.942Z,13.23
2023-01-28T09:10:31.804Z,12.63
2023-01-28T09:13:02.782Z,12.43
2023-01-28T09:15:36.287Z,11.47
2023-01-28T09:18:07.970Z,10.20
2023-01-28T09:21:01.811Z,10.57
2023-01-28T09:23:41.363Z,19.63
2023-01-28T09:29:32.588Z,12.20
2023-01-28T09:32:53.701Z,16.20
2023-01-28T09:35:23.532Z,15.17
2023-01-28T09:38:09.079Z,15.97
2023-01-28T09:47:42.349Z,17.80
2023-01-28T09:53:50.359Z,15.40
2023-01-28T09:56:19.255Z,12.60
2023-01-28T09:58:48.403Z,12.27
2023-01-28T10:01:46.949Z,16.63
2023-01-28T10:04:37.564Z,17.27
2023-01-28T10:08:02.134Z,16.87
2023-01-28T10:10:39.282Z,15.83
2023-01-28T10:13:14.689Z,18.93
2023-01-28T10:16:07.836Z,18.87
2023-01-28T10:18:45.189Z,20.33
2023-01-28T10:21:50.008Z,19.27
2023-01-28T10:28:23.251Z,16.73
2023-01-28T10:30:52.960Z,18.77
2023-01-28T10:33:38.716Z,17.57
2023-01-28T10:40:39.974Z,15.70
2023-01-28T11:03:23.102Z,13.33
2023-01-28T11:04:54.019Z,18.40
2023-01-28T12:52:12.969Z,14.30
2023-01-28T13:43:43.787Z,11.13
2023-01-28T13:46:23.232Z,15.57
2023-01-28T13:51:19.800Z,13.27
2023-01-28T14:20:53.240Z,16.07
2023-01-28T14:23:22.662Z,14.10
2023-01-28T14:32:24.460Z,15.53
2023-01-28T14:35:11.478Z,15.33
2023-01-28T14:38:06.950Z,15.73
2023-01-28T14:44:19.916Z,16.40
2023-01-28T14:50:30.867Z,12.57
2023-01-28T14:53:16.341Z,12.80
2023-01-28T14:56:08.367Z,13.37
2023-01-28T14:58:46.538Z,13.80
2023-01-28T15:01:44.460Z,14.63
2023-01-28T15:04:41.449Z,12.30
2023-01-28T15:07:22.079Z,11.43
2023-01-28T15:10:06.079Z,11.07
2023-01-28T15:12:37.461Z,11.77
2023-01-28T15:15:15.489Z,9.57
2023-01-28T15:17:44.951Z,9.90
2023-01-28T15:20:19.509Z,16.47
2023-01-28T15:22:53.282Z,13.47
2023-01-28T15:25:25.881Z,16.33
2023-01-28T15:28:04.692Z,14.30
2023-01-28T15:30:37.549Z,13.93
2023-01-28T15:33:14.368Z,10.53
2023-01-28T15:42:16.799Z,14.23
2023-01-28T15:57:57.802Z,18.90
2023-01-28T16:07:27.177Z,11.27
2023-01-28T16:10:16.322Z,14.03
2023-01-28T16:15:37.753Z,13.27
2023-01-28T16:18:45.443Z,14.90
2023-01-28T16:22:26.472Z,14.50
2023-01-28T16:24:40.877Z,13.27
2023-01-28T16:36:20.832Z,15.07
2023-01-28T16:39:19.996Z,13.17
2023-01-28T16:41:46.920Z,12.57
2023-01-28T16:44:18.725Z,14.20
2023-01-28T16:46:47.839Z,14.97
2023-01-28T16:49:22.296Z,12.13
2023-01-28T16:51:59.073Z,14.13
2023-01-28T16:54:46.988Z,14.23
2023-01-28T16:57:23.519Z,14.67
2023-01-28T17:05:43.277Z,14.80
2023-01-28T17:19:00.456Z,15.50
2023-01-28T17:28:20.980Z,16.30
2023-01-28T17:30:58.618Z,16.87
2023-01-28T17:33:38.775Z,15.13
2023-01-28T17:36:09.406Z,15.80
2023-01-28T17:41:37.222Z,14.00
2023-01-28T17:44:08.033Z,15.33
2023-01-28T17:46:40.124Z,13.17
2023-01-28T17:49:17.738Z,15.30
2023-01-28T17:51:53.295Z,15.20
2023-01-28T17:57:41.700Z,14.43
2023-01-28T18:00:13.304Z,14.03
2023-01-28T18:02:43.976Z,13.13
2023-01-28T18:05:37.502Z,13.97
2023-01-28T18:08:07.895Z,11.50
2023-01-28T18:10:45.506Z,18.37
2023-01-28T18:13:16.359Z,11.50
2023-01-28T18:15:58.226Z,16.63
2023-01-28T18:18:30.341Z,11.87
2023-01-28T18:21:12.145Z,16.37
2023-01-28T18:23:44.854Z,17.93
2023-01-28T18:26:17.254Z,17.37
2023-01-28T18:29:06.114Z,16.80
2023-01-28T18:31:35.244Z,17.63
2023-01-28T18:34:07.835Z,24.03
2023-01-28T18:36:38.553Z,17.07
2023-01-28T18:39:32.240Z,20.13
2023-01-28T18:42:01.279Z,11.93
2023-01-28T18:44:34.494Z,19.43
2023-01-28T18:47:06.317Z,17.77
2023-01-28T18:49:43.385Z,16.83
2023-01-28T18:52:15.026Z,13.63
2023-01-28T18:54:51.360Z,14.70
2023-01-28T18:57:21.408Z,15.27
2023-01-28T18:59:52.129Z,16.60
2023-01-28T19:02:31.637Z,17.37
2023-01-28T19:05:08.457Z,14.17
2023-01-28T19:07:39.087Z,17.83
2023-01-28T19:10:12.393Z,16.37
2023-01-28T19:13:00.535Z,16.37
2023-01-28T19:15:44.933Z,21.93
2023-01-28T19:18:19.491Z,16.80
2023-01-28T19:20:48.826Z,18.27
2023-01-28T19:23:17.884Z,25.70
2023-01-28T19:25:54.088Z,26.93
2023-01-28T19:28:27.545Z,17.07
2023-01-28T19:31:00.693Z,18.23
2023-01-28T19:33:42.254Z,15.90
2023-01-28T19:36:14.084Z,15.17
2023-01-28T20:15:09.331Z,19.20
2023-01-28T20:27:27.015Z,20.40
2023-01-28T20:29:55.817Z,20.00
2023-01-28T20:32:26.947Z,17.33
2023-01-28T20:35:01.350Z,15.20
2023-01-28T20:37:30.226Z,15.00
2023-01-28T20:40:01.961Z,19.90
2023-01-28T20:42:32.794Z,17.73
2023-01-28T20:45:04.362Z,22.67
2023-01-28T20:47:34.388Z,24.00
2023-01-28T20:50:05.700Z,17.40
2023-01-28T20:52:34.635Z,30.00
2023-01-28T20:55:03.393Z,21.97
2023-01-28T20:57:35.597Z,17.77
2023-01-28T21:00:14.764Z,19.33
2023-01-28T21:02:46.224Z,17.10
2023-01-28T21:05:17.209Z,21.83
2023-01-28T21:07:47.939Z,18.33
2023-01-28T21:10:20.455Z,20.90
2023-01-28T21:12:52.974Z,20.23
2023-01-28T21:15:24.292Z,20.53
2023-01-28T21:17:59.101Z,20.90
2023-01-28T21:20:23.458Z,21.70
2023-01-28T21:25:50.608Z,23.93
2023-01-28T21:28:20.773Z,27.57
2023-01-28T21:30:49.645Z,22.83
2023-01-28T21:33:26.436Z,22.23
2023-01-28T21:35:55.295Z,18.67
2023-01-28T21:38:26.987Z,22.23
2023-01-28T21:41:00.658Z,24.80
2023-01-28T21:46:42.925Z,20.53
2023-01-28T21:49:16.072Z,20.87
2023-01-28T21:51:47.954Z,19.07
2023-01-28T21:54:23.486Z,33.37
2023-01-28T21:56:53.860Z,23.77
2023-01-28T21:59:31.834Z,21.90
2023-01-28T22:02:18.110Z,24.47
2023-01-28T22:04:54.030Z,18.30
2023-01-28T22:07:25.717Z,20.53
2023-01-28T22:09:56.886Z,17.87
2023-01-28T22:12:28.616Z,23.60
2023-01-28T22:15:01.810Z,20.40
2023-01-28T22:17:33.029Z,20.57
2023-01-28T22:20:01.920Z,17.80
2023-01-28T22:22:34.063Z,24.13
2023-01-28T22:27:45.862Z,24.07
2023-01-28T22:30:15.336Z,18.47
2023-01-28T22:32:44.333Z,19.67
2023-01-28T22:35:37.888Z,19.63
2023-01-28T22:38:09.177Z,17.90
2023-01-28T22:40:52.771Z,17.10
2023-01-28T22:43:37.461Z,17.87
2023-01-28T22:46:07.245Z,18.07
2023-01-28T22:48:37.889Z,19.57
2023-01-28T22:51:09.030Z,15.83
2023-01-28T22:53:37.714Z,19.63
2023-01-28T22:56:08.933Z,19.27
2023-01-28T22:58:38.751Z,19.83
2023-01-28T23:01:08.035Z,17.73
2023-01-28T23:03:37.990Z,13.63
2023-01-28T23:06:06.794Z,18.70
2023-01-28T23:08:35.525Z,18.80
2023-01-28T23:11:04.633Z,17.33
2023-01-28T23:13:37.953Z,14.60
2023-01-28T23:16:30.705Z,18.37
2023-01-28T23:19:20.538Z,16.90
2023-01-28T23:22:08.837Z,15.03
2023-01-28T23:24:40.736Z,19.17
2023-01-28T23:27:09.549Z,17.47
2023-01-28T23:29:40.796Z,20.57
2023-01-28T23:32:14.697Z,18.13
2023-01-28T23:34:46.319Z,16.70
2023-01-28T23:37:15.937Z,21.67
2023-01-28T23:39:44.525Z,21.63
2023-01-28T23:42:16.108Z,19.70
2023-01-28T23:44:44.845Z,16.00
2023-01-28T23:47:13.909Z,18.20
2023-01-28T23:49:42.915Z,12.93
2023-01-28T23:52:13.229Z,19.43
2023-01-28T23:54:41.901Z,17.27
2023-01-28T23:57:10.515Z,18.30
2023-01-28T23:59:39.149Z,18.10
